sensor_id;sensor_type;location;lat;lon;timestamp;temperature;humidity
16995;DHT22;8614;48.522;9.206;2023-07-29T00:01:19;16.80;99.90
16995;DHT22;8614;48.522;9.206;2023-07-29T00:03:45;16.80;99.90
16995;DHT22;8614;48.522;9.206;2023-07-29T00:06:12;16.80;99.90
16995;DHT22;8614;48.522;9.206;2023-07-29T00:08:39;16.80;99.90
16995;DHT22;8614;48.522;9.206;2023-07-29T00:11:06;16.90;99.90
16995;DHT22;8614;48.522;9.206;2023-07-29T00:13:34;16.90;99.90
16995;DHT22;8614;48.522;9.206;2023-07-29T00:16:01;16.90;99.90
16995;DHT22;8614;48.522;9.206;2023-07-29T00:18:27;16.90;99.90
16995;DHT22;8614;48.522;9.206;2023-07-29T00:20:54;16.90;99.90
16995;DHT22;8614;48.522;9.206;2023-07-29T00:23:21;16.90;99.90
16995;DHT22;8614;48.522;9.206;2023-07-29T00:25:48;16.90;99.90
16995;DHT22;8614;48.522;9.206;2023-07-29T00:28:15;16.90;99.90
16995;DHT22;8614;48.522;9.206;2023-07-29T00:30:45;16.90;99.90
16995;DHT22;8614;48.522;9.206;2023-07-29T00:33:12;16.90;99.90
16995;DHT22;8614;48.522;9.206;2023-07-29T00:35:39;16.90;99.90
16995;DHT22;8614;48.522;9.206;2023-07-29T00:38:05;16.90;99.90
16995;DHT22;8614;48.522;9.206;2023-07-29T00:40:35;16.90;99.90
16995;DHT22;8614;48.522;9.206;2023-07-29T00:43:02;16.90;99.90
16995;DHT22;8614;48.522;9.206;2023-07-29T00:45:30;16.90;99.90
16995;DHT22;8614;48.522;9.206;2023-07-29T00:47:58;16.90;99.90
16995;DHT22;8614;48.522;9.206;2023-07-29T00:50:25;17.00;99.90
16995;DHT22;8614;48.522;9.206;2023-07-29T00:52:53;17.00;99.90
16995;DHT22;8614;48.522;9.206;2023-07-29T00:55:23;17.00;99.90
16995;DHT22;8614;48.522;9.206;2023-07-29T00:57:50;17.00;99.90
16995;DHT22;8614;48.522;9.206;2023-07-29T01:00:20;16.90;99.90
16995;DHT22;8614;48.522;9.206;2023-07-29T01:02:47;17.00;99.90
16995;DHT22;8614;48.522;9.206;2023-07-29T01:05:16;17.00;99.90
16995;DHT22;8614;48.522;9.206;2023-07-29T01:07:48;17.00;99.90
16995;DHT22;8614;48.522;9.206;2023-07-29T01:10:27;17.00;99.90
16995;DHT22;8614;48.522;9.206;2023-07-29T01:13:03;16.90;99.90
16995;DHT22;8614;48.522;9.206;2023-07-29T01:15:36;16.90;99.90
16995;DHT22;8614;48.522;9.206;2023-07-29T01:18:05;17.00;99.90
16995;DHT22;8614;48.522;9.206;2023-07-29T01:20:37;17.00;99.90
16995;DHT22;8614;48.522;9.206;2023-07-29T01:23:05;17.00;99.90
16995;DHT22;8614;48.522;9.206;2023-07-29T01:25:33;17.00;99.90
16995;DHT22;8614;48.522;9.206;2023-07-29T01:28:00;17.00;99.90
16995;DHT22;8614;48.522;9.206;2023-07-29T01:30:31;17.00;99.90
16995;DHT22;8614;48.522;9.206;2023-07-29T01:33:04;17.00;99.90
16995;DHT22;8614;48.522;9.206;2023-07-29T01:35:36;17.00;99.90
16995;DHT22;8614;48.522;9.206;2023-07-29T01:38:17;17.00;99.90
16995;DHT22;8614;48.522;9.206;2023-07-29T01:40:46;17.00;99.90
16995;DHT22;8614;48.522;9.206;2023-07-29T01:43:14;17.00;99.90
16995;DHT22;8614;48.522;9.206;2023-07-29T01:45:41;17.00;99.90
16995;DHT22;8614;48.522;9.206;2023-07-29T01:48:08;17.00;99.90
16995;DHT22;8614;48.522;9.206;2023-07-29T01:50:35;17.00;99.90
16995;DHT22;8614;48.522;9.206;2023-07-29T01:53:02;17.00;99.90
16995;DHT22;8614;48.522;9.206;2023-07-29T01:55:29;17.00;99.90
16995;DHT22;8614;48.522;9.206;2023-07-29T01:57:57;17.00;99.90
16995;DHT22;8614;48.522;9.206;2023-07-29T02:00:25;17.00;99.90
16995;DHT22;8614;48.522;9.206;2023-07-29T02:02:52;16.90;99.90
16995;DHT22;8614;48.522;9.206;2023-07-29T02:05:19;16.90;99.90
16995;DHT22;8614;48.522;9.206;2023-07-29T02:07:45;16.90;99.90
16995;DHT22;8614;48.522;9.206;2023-07-29T02:10:14;16.80;99.90
16995;DHT22;8614;48.522;9.206;2023-07-29T02:12:41;16.80;99.90
16995;DHT22;8614;48.522;9.206;2023-07-29T02:15:10;16.80;99.90
16995;DHT22;8614;48.522;9.206;2023-07-29T02:17:37;16.70;99.90
16995;DHT22;8614;48.522;9.206;2023-07-29T02:20:04;16.70;99.90
16995;DHT22;8614;48.522;9.206;2023-07-29T02:22:32;16.70;99.90
16995;DHT22;8614;48.522;9.206;2023-07-29T02:24:58;16.60;99.90
16995;DHT22;8614;48.522;9.206;2023-07-29T02:27:26;16.60;99.90
16995;DHT22;8614;48.522;9.206;2023-07-29T02:29:53;16.60;99.90
16995;DHT22;8614;48.522;9.206;2023-07-29T02:32:21;16.50;99.90
16995;DHT22;8614;48.522;9.206;2023-07-29T02:34:48;16.50;99.90
16995;DHT22;8614;48.522;9.206;2023-07-29T02:37:15;16.50;99.90
16995;DHT22;8614;48.522;9.206;2023-07-29T02:39:43;16.50;99.90
16995;DHT22;8614;48.522;9.206;2023-07-29T02:42:09;16.50;99.90
16995;DHT22;8614;48.522;9.206;2023-07-29T02:44:36;16.50;99.90
16995;DHT22;8614;48.522;9.206;2023-07-29T02:47:03;16.40;99.90
16995;DHT22;8614;48.522;9.206;2023-07-29T02:49:32;16.40;99.90
16995;DHT22;8614;48.522;9.206;2023-07-29T02:52:01;16.40;99.90
16995;DHT22;8614;48.522;9.206;2023-07-29T02:54:28;16.40;99.90
16995;DHT22;8614;48.522;9.206;2023-07-29T02:56:55;16.50;99.90
16995;DHT22;8614;48.522;9.206;2023-07-29T02:59:22;16.50;99.90
16995;DHT22;8614;48.522;9.206;2023-07-29T03:01:49;16.50;99.90
16995;DHT22;8614;48.522;9.206;2023-07-29T03:04:16;16.50;99.90
16995;DHT22;8614;48.522;9.206;2023-07-29T03:06:44;16.50;99.90
16995;DHT22;8614;48.522;9.206;2023-07-29T03:09:13;16.50;99.90
16995;DHT22;8614;48.522;9.206;2023-07-29T03:11:40;16.50;99.90
16995;DHT22;8614;48.522;9.206;2023-07-29T03:14:07;16.50;99.90
16995;DHT22;8614;48.522;9.206;2023-07-29T03:16:34;16.50;99.90
16995;DHT22;8614;48.522;9.206;2023-07-29T03:19:01;16.50;99.90
16995;DHT22;8614;48.522;9.206;2023-07-29T03:21:28;16.50;99.90
16995;DHT22;8614;48.522;9.206;2023-07-29T03:23:56;16.50;99.90
16995;DHT22;8614;48.522;9.206;2023-07-29T03:26:23;16.50;99.90
16995;DHT22;8614;48.522;9.206;2023-07-29T03:28:50;16.50;99.90
16995;DHT22;8614;48.522;9.206;2023-07-29T03:31:17;16.60;99.90
16995;DHT22;8614;48.522;9.206;2023-07-29T03:33:45;16.60;99.90
16995;DHT22;8614;48.522;9.206;2023-07-29T03:36:13;16.50;99.90
16995;DHT22;8614;48.522;9.206;2023-07-29T03:38:41;16.50;99.90
16995;DHT22;8614;48.522;9.206;2023-07-29T03:41:11;16.50;99.90
16995;DHT22;8614;48.522;9.206;2023-07-29T03:43:38;16.50;99.90
16995;DHT22;8614;48.522;9.206;2023-07-29T03:46:05;16.60;99.90
16995;DHT22;8614;48.522;9.206;2023-07-29T03:48:32;16.60;99.90
16995;DHT22;8614;48.522;9.206;2023-07-29T03:50:59;16.60;99.90
16995;DHT22;8614;48.522;9.206;2023-07-29T03:53:26;16.60;99.90
16995;DHT22;8614;48.522;9.206;2023-07-29T03:55:53;16.60;99.90
16995;DHT22;8614;48.522;9.206;2023-07-29T03:58:21;16.70;99.90
16995;DHT22;8614;48.522;9.206;2023-07-29T04:00:48;16.70;99.90
16995;DHT22;8614;48.522;9.206;2023-07-29T04:03:15;16.80;99.90
16995;DHT22;8614;48.522;9.206;2023-07-29T04:05:42;16.80;99.90
16995;DHT22;8614;48.522;9.206;2023-07-29T04:08:09;16.80;99.90
16995;DHT22;8614;48.522;9.206;2023-07-29T04:10:36;16.80;99.90
16995;DHT22;8614;48.522;9.206;2023-07-29T04:13:03;16.80;99.90
16995;DHT22;8614;48.522;9.206;2023-07-29T04:15:32;16.80;99.90
16995;DHT22;8614;48.522;9.206;2023-07-29T04:17:58;16.80;99.90
16995;DHT22;8614;48.522;9.206;2023-07-29T04:20:25;16.80;99.90
16995;DHT22;8614;48.522;9.206;2023-07-29T04:22:52;16.80;99.90
16995;DHT22;8614;48.522;9.206;2023-07-29T04:25:19;16.80;99.90
16995;DHT22;8614;48.522;9.206;2023-07-29T04:27:46;16.90;99.90
16995;DHT22;8614;48.522;9.206;2023-07-29T04:30:13;16.90;99.90
16995;DHT22;8614;48.522;9.206;2023-07-29T04:32:41;16.90;99.90
16995;DHT22;8614;48.522;9.206;2023-07-29T04:35:10;17.00;99.90
16995;DHT22;8614;48.522;9.206;2023-07-29T04:37:37;17.00;99.90
16995;DHT22;8614;48.522;9.206;2023-07-29T04:40:05;17.00;99.90
16995;DHT22;8614;48.522;9.206;2023-07-29T04:42:32;17.10;99.90
16995;DHT22;8614;48.522;9.206;2023-07-29T04:44:58;17.20;99.90
16995;DHT22;8614;48.522;9.206;2023-07-29T04:47:25;17.20;99.90
16995;DHT22;8614;48.522;9.206;2023-07-29T04:49:53;17.30;99.90
16995;DHT22;8614;48.522;9.206;2023-07-29T04:52:20;17.30;99.90
16995;DHT22;8614;48.522;9.206;2023-07-29T04:54:47;17.30;99.90
16995;DHT22;8614;48.522;9.206;2023-07-29T04:57:14;17.30;99.90
16995;DHT22;8614;48.522;9.206;2023-07-29T04:59:41;17.30;99.90
16995;DHT22;8614;48.522;9.206;2023-07-29T05:02:07;17.30;99.90
16995;DHT22;8614;48.522;9.206;2023-07-29T05:04:34;17.30;99.90
16995;DHT22;8614;48.522;9.206;2023-07-29T05:07:04;17.30;99.90
16995;DHT22;8614;48.522;9.206;2023-07-29T05:09:31;17.30;99.90
16995;DHT22;8614;48.522;9.206;2023-07-29T05:11:58;17.30;99.90
16995;DHT22;8614;48.522;9.206;2023-07-29T05:14:25;17.40;99.90
16995;DHT22;8614;48.522;9.206;2023-07-29T05:16:52;17.40;99.90
16995;DHT22;8614;48.522;9.206;2023-07-29T05:19:18;17.30;99.90
16995;DHT22;8614;48.522;9.206;2023-07-29T05:21:45;17.20;99.90
16995;DHT22;8614;48.522;9.206;2023-07-29T05:24:14;17.30;99.90
16995;DHT22;8614;48.522;9.206;2023-07-29T05:26:40;17.30;99.90
16995;DHT22;8614;48.522;9.206;2023-07-29T05:29:07;17.30;99.90
16995;DHT22;8614;48.522;9.206;2023-07-29T05:31:34;17.30;99.90
16995;DHT22;8614;48.522;9.206;2023-07-29T05:34:01;17.40;99.90
16995;DHT22;8614;48.522;9.206;2023-07-29T05:36:29;17.50;99.90
16995;DHT22;8614;48.522;9.206;2023-07-29T05:38:56;17.50;99.90
16995;DHT22;8614;48.522;9.206;2023-07-29T05:41:24;17.50;99.90
16995;DHT22;8614;48.522;9.206;2023-07-29T05:43:52;17.50;99.90
16995;DHT22;8614;48.522;9.206;2023-07-29T05:46:18;17.60;99.90
16995;DHT22;8614;48.522;9.206;2023-07-29T05:48:45;17.80;99.90
16995;DHT22;8614;48.522;9.206;2023-07-29T05:51:12;18.00;99.90
16995;DHT22;8614;48.522;9.206;2023-07-29T05:53:39;18.40;99.90
16995;DHT22;8614;48.522;9.206;2023-07-29T05:56:06;18.60;99.90
16995;DHT22;8614;48.522;9.206;2023-07-29T05:58:34;18.70;99.90
16995;DHT22;8614;48.522;9.206;2023-07-29T06:01:01;18.70;99.90
16995;DHT22;8614;48.522;9.206;2023-07-29T06:03:28;18.90;99.90
16995;DHT22;8614;48.522;9.206;2023-07-29T06:05:55;19.00;99.90
16995;DHT22;8614;48.522;9.206;2023-07-29T06:08:22;19.20;99.90
16995;DHT22;8614;48.522;9.206;2023-07-29T06:10:49;19.30;99.90
16995;DHT22;8614;48.522;9.206;2023-07-29T06:13:18;19.60;99.90
16995;DHT22;8614;48.522;9.206;2023-07-29T06:15:46;19.80;99.90
16995;DHT22;8614;48.522;9.206;2023-07-29T06:18:13;20.10;99.90
16995;DHT22;8614;48.522;9.206;2023-07-29T06:20:40;20.20;99.90
16995;DHT22;8614;48.522;9.206;2023-07-29T06:23:08;20.30;99.90
16995;DHT22;8614;48.522;9.206;2023-07-29T06:25:38;20.30;99.90
16995;DHT22;8614;48.522;9.206;2023-07-29T06:28:09;20.20;99.90
16995;DHT22;8614;48.522;9.206;2023-07-29T06:30:36;20.20;99.90
16995;DHT22;8614;48.522;9.206;2023-07-29T06:33:04;20.20;99.90
16995;DHT22;8614;48.522;9.206;2023-07-29T06:35:31;20.20;99.90
16995;DHT22;8614;48.522;9.206;2023-07-29T06:37:57;20.30;99.90
16995;DHT22;8614;48.522;9.206;2023-07-29T06:40:25;20.50;99.90
16995;DHT22;8614;48.522;9.206;2023-07-29T06:42:51;20.70;99.90
16995;DHT22;8614;48.522;9.206;2023-07-29T06:45:18;20.70;99.90
16995;DHT22;8614;48.522;9.206;2023-07-29T06:47:45;20.70;99.90
16995;DHT22;8614;48.522;9.206;2023-07-29T06:50:13;20.60;99.90
16995;DHT22;8614;48.522;9.206;2023-07-29T06:52:40;20.70;99.90
16995;DHT22;8614;48.522;9.206;2023-07-29T06:55:07;20.80;99.90
16995;DHT22;8614;48.522;9.206;2023-07-29T06:57:34;20.80;99.90
16995;DHT22;8614;48.522;9.206;2023-07-29T07:00:01;20.60;99.90
16995;DHT22;8614;48.522;9.206;2023-07-29T07:02:31;20.40;99.90
16995;DHT22;8614;48.522;9.206;2023-07-29T07:05:01;20.20;99.90
16995;DHT22;8614;48.522;9.206;2023-07-29T07:07:29;19.90;99.90
16995;DHT22;8614;48.522;9.206;2023-07-29T07:09:56;19.60;99.90
16995;DHT22;8614;48.522;9.206;2023-07-29T07:12:23;19.30;99.90
16995;DHT22;8614;48.522;9.206;2023-07-29T07:14:50;19.10;99.90
16995;DHT22;8614;48.522;9.206;2023-07-29T07:17:17;18.90;99.90
16995;DHT22;8614;48.522;9.206;2023-07-29T07:19:47;18.90;99.90
16995;DHT22;8614;48.522;9.206;2023-07-29T07:22:14;18.80;99.90
16995;DHT22;8614;48.522;9.206;2023-07-29T07:24:42;18.80;99.90
16995;DHT22;8614;48.522;9.206;2023-07-29T07:27:09;18.80;99.90
16995;DHT22;8614;48.522;9.206;2023-07-29T07:29:36;18.80;99.90
16995;DHT22;8614;48.522;9.206;2023-07-29T07:32:03;19.00;99.90
16995;DHT22;8614;48.522;9.206;2023-07-29T07:34:30;19.00;99.90
16995;DHT22;8614;48.522;9.206;2023-07-29T07:36:58;19.00;99.90
16995;DHT22;8614;48.522;9.206;2023-07-29T07:39:26;19.10;99.90
16995;DHT22;8614;48.522;9.206;2023-07-29T07:41:54;19.20;99.90
16995;DHT22;8614;48.522;9.206;2023-07-29T07:44:21;19.30;99.90
16995;DHT22;8614;48.522;9.206;2023-07-29T07:46:47;19.50;99.90
16995;DHT22;8614;48.522;9.206;2023-07-29T07:49:14;19.70;99.90
16995;DHT22;8614;48.522;9.206;2023-07-29T07:51:43;19.80;99.90
16995;DHT22;8614;48.522;9.206;2023-07-29T07:54:10;19.80;99.90
16995;DHT22;8614;48.522;9.206;2023-07-29T07:56:37;19.80;99.90
16995;DHT22;8614;48.522;9.206;2023-07-29T07:59:05;19.90;99.90
16995;DHT22;8614;48.522;9.206;2023-07-29T08:01:34;19.90;99.90
16995;DHT22;8614;48.522;9.206;2023-07-29T08:04:01;19.90;99.90
16995;DHT22;8614;48.522;9.206;2023-07-29T08:06:28;20.10;99.90
16995;DHT22;8614;48.522;9.206;2023-07-29T08:08:55;20.10;99.90
16995;DHT22;8614;48.522;9.206;2023-07-29T08:11:22;20.20;99.90
16995;DHT22;8614;48.522;9.206;2023-07-29T08:13:49;20.30;99.90
16995;DHT22;8614;48.522;9.206;2023-07-29T08:16:17;20.50;99.90
16995;DHT22;8614;48.522;9.206;2023-07-29T08:18:44;20.70;99.90
16995;DHT22;8614;48.522;9.206;2023-07-29T08:21:11;20.70;99.90
16995;DHT22;8614;48.522;9.206;2023-07-29T08:23:38;20.70;99.90
16995;DHT22;8614;48.522;9.206;2023-07-29T08:26:05;20.70;99.90
16995;DHT22;8614;48.522;9.206;2023-07-29T08:28:34;20.80;99.90
16995;DHT22;8614;48.522;9.206;2023-07-29T08:31:01;20.80;99.90
16995;DHT22;8614;48.522;9.206;2023-07-29T08:33:29;20.80;99.90
16995;DHT22;8614;48.522;9.206;2023-07-29T08:35:56;20.70;99.90
16995;DHT22;8614;48.522;9.206;2023-07-29T08:38:23;20.70;99.90
16995;DHT22;8614;48.522;9.206;2023-07-29T08:40:54;20.60;99.90
16995;DHT22;8614;48.522;9.206;2023-07-29T08:43:28;20.60;99.90
16995;DHT22;8614;48.522;9.206;2023-07-29T08:45:55;20.70;99.90
16995;DHT22;8614;48.522;9.206;2023-07-29T08:48:29;20.80;99.90
16995;DHT22;8614;48.522;9.206;2023-07-29T08:50:56;20.70;99.90
16995;DHT22;8614;48.522;9.206;2023-07-29T08:53:23;20.60;99.90
16995;DHT22;8614;48.522;9.206;2023-07-29T08:55:50;20.50;99.90
16995;DHT22;8614;48.522;9.206;2023-07-29T08:58:19;20.50;99.90
16995;DHT22;8614;48.522;9.206;2023-07-29T09:00:47;20.50;99.90
16995;DHT22;8614;48.522;9.206;2023-07-29T09:03:14;20.70;99.90
16995;DHT22;8614;48.522;9.206;2023-07-29T09:05:42;21.20;99.90
16995;DHT22;8614;48.522;9.206;2023-07-29T09:08:09;21.80;99.90
16995;DHT22;8614;48.522;9.206;2023-07-29T09:10:37;22.50;99.90
16995;DHT22;8614;48.522;9.206;2023-07-29T09:13:04;23.10;99.90
16995;DHT22;8614;48.522;9.206;2023-07-29T09:15:34;23.60;99.90
16995;DHT22;8614;48.522;9.206;2023-07-29T09:18:09;24.20;99.90
16995;DHT22;8614;48.522;9.206;2023-07-29T09:20:36;24.50;99.90
16995;DHT22;8614;48.522;9.206;2023-07-29T09:23:07;24.80;99.90
16995;DHT22;8614;48.522;9.206;2023-07-29T09:25:34;25.10;99.90
16995;DHT22;8614;48.522;9.206;2023-07-29T09:28:02;25.30;99.90
16995;DHT22;8614;48.522;9.206;2023-07-29T09:30:33;25.40;99.90
16995;DHT22;8614;48.522;9.206;2023-07-29T09:33:00;25.80;99.90
16995;DHT22;8614;48.522;9.206;2023-07-29T09:35:29;26.20;99.90
16995;DHT22;8614;48.522;9.206;2023-07-29T09:37:57;26.70;99.90
16995;DHT22;8614;48.522;9.206;2023-07-29T09:40:25;26.90;99.90
16995;DHT22;8614;48.522;9.206;2023-07-29T09:42:53;26.90;99.90
16995;DHT22;8614;48.522;9.206;2023-07-29T09:45:22;27.20;99.90
16995;DHT22;8614;48.522;9.206;2023-07-29T09:47:50;27.50;99.90
16995;DHT22;8614;48.522;9.206;2023-07-29T09:50:17;27.80;99.90
16995;DHT22;8614;48.522;9.206;2023-07-29T09:52:44;28.10;99.90
16995;DHT22;8614;48.522;9.206;2023-07-29T09:55:12;28.00;99.90
16995;DHT22;8614;48.522;9.206;2023-07-29T09:57:46;28.00;99.90
16995;DHT22;8614;48.522;9.206;2023-07-29T10:00:13;28.10;99.90
16995;DHT22;8614;48.522;9.206;2023-07-29T10:02:41;28.00;99.90
16995;DHT22;8614;48.522;9.206;2023-07-29T10:05:09;27.80;99.90
16995;DHT22;8614;48.522;9.206;2023-07-29T10:07:38;27.70;99.90
16995;DHT22;8614;48.522;9.206;2023-07-29T10:10:06;27.40;99.90
16995;DHT22;8614;48.522;9.206;2023-07-29T10:12:35;27.40;99.90
16995;DHT22;8614;48.522;9.206;2023-07-29T10:15:05;27.30;99.90
16995;DHT22;8614;48.522;9.206;2023-07-29T10:17:34;27.70;99.90
16995;DHT22;8614;48.522;9.206;2023-07-29T10:20:02;28.10;99.90
16995;DHT22;8614;48.522;9.206;2023-07-29T10:22:37;28.10;99.90
16995;DHT22;8614;48.522;9.206;2023-07-29T10:25:07;28.00;99.90
16995;DHT22;8614;48.522;9.206;2023-07-29T10:27:40;28.20;99.90
16995;DHT22;8614;48.522;9.206;2023-07-29T10:30:11;28.40;99.90
16995;DHT22;8614;48.522;9.206;2023-07-29T10:32:39;28.50;99.90
16995;DHT22;8614;48.522;9.206;2023-07-29T10:35:08;28.50;99.90
16995;DHT22;8614;48.522;9.206;2023-07-29T10:37:35;28.60;99.90
16995;DHT22;8614;48.522;9.206;2023-07-29T10:40:06;28.60;99.90
16995;DHT22;8614;48.522;9.206;2023-07-29T10:42:33;28.50;99.90
16995;DHT22;8614;48.522;9.206;2023-07-29T10:45:02;28.50;99.90
16995;DHT22;8614;48.522;9.206;2023-07-29T10:47:44;28.70;99.90
16995;DHT22;8614;48.522;9.206;2023-07-29T10:50:18;28.80;99.90
16995;DHT22;8614;48.522;9.206;2023-07-29T10:52:49;28.80;99.90
16995;DHT22;8614;48.522;9.206;2023-07-29T10:55:25;28.90;99.90
16995;DHT22;8614;48.522;9.206;2023-07-29T10:57:53;28.90;99.90
16995;DHT22;8614;48.522;9.206;2023-07-29T11:00:31;28.70;99.90
16995;DHT22;8614;48.522;9.206;2023-07-29T11:03:01;28.60;99.90
16995;DHT22;8614;48.522;9.206;2023-07-29T11:05:43;28.70;99.90
16995;DHT22;8614;48.522;9.206;2023-07-29T11:08:18;28.60;99.90
16995;DHT22;8614;48.522;9.206;2023-07-29T11:11:04;28.30;99.90
16995;DHT22;8614;48.522;9.206;2023-07-29T11:13:32;27.90;99.90
16995;DHT22;8614;48.522;9.206;2023-07-29T11:15:59;27.80;99.90
16995;DHT22;8614;48.522;9.206;2023-07-29T11:18:29;27.50;99.90
16995;DHT22;8614;48.522;9.206;2023-07-29T11:20:57;27.50;99.90
16995;DHT22;8614;48.522;9.206;2023-07-29T11:23:32;27.50;99.90
16995;DHT22;8614;48.522;9.206;2023-07-29T11:29:46;27.40;99.90
16995;DHT22;8614;48.522;9.206;2023-07-29T11:32:13;27.30;99.90
16995;DHT22;8614;48.522;9.206;2023-07-29T11:34:42;27.10;99.90
16995;DHT22;8614;48.522;9.206;2023-07-29T11:37:11;27.20;99.90
16995;DHT22;8614;48.522;9.206;2023-07-29T11:39:39;27.20;99.90
16995;DHT22;8614;48.522;9.206;2023-07-29T11:42:07;27.00;99.90
16995;DHT22;8614;48.522;9.206;2023-07-29T11:44:33;27.00;99.90
16995;DHT22;8614;48.522;9.206;2023-07-29T11:47:00;27.10;99.90
16995;DHT22;8614;48.522;9.206;2023-07-29T11:49:27;27.10;99.90
16995;DHT22;8614;48.522;9.206;2023-07-29T11:51:55;27.10;99.90
16995;DHT22;8614;48.522;9.206;2023-07-29T11:54:23;27.10;99.90
16995;DHT22;8614;48.522;9.206;2023-07-29T11:56:50;26.90;99.90
16995;DHT22;8614;48.522;9.206;2023-07-29T11:59:17;26.90;99.90
16995;DHT22;8614;48.522;9.206;2023-07-29T12:01:45;26.90;99.90
16995;DHT22;8614;48.522;9.206;2023-07-29T12:04:12;26.90;99.90
16995;DHT22;8614;48.522;9.206;2023-07-29T12:06:39;26.90;99.90
16995;DHT22;8614;48.522;9.206;2023-07-29T12:09:08;27.10;99.90
16995;DHT22;8614;48.522;9.206;2023-07-29T12:11:35;27.10;99.90
16995;DHT22;8614;48.522;9.206;2023-07-29T12:14:02;27.20;99.90
16995;DHT22;8614;48.522;9.206;2023-07-29T12:16:29;27.20;99.90
16995;DHT22;8614;48.522;9.206;2023-07-29T12:19:00;27.30;99.90
16995;DHT22;8614;48.522;9.206;2023-07-29T12:21:27;27.30;99.90
16995;DHT22;8614;48.522;9.206;2023-07-29T12:23:55;27.40;99.90
16995;DHT22;8614;48.522;9.206;2023-07-29T12:26:28;27.40;99.90
16995;DHT22;8614;48.522;9.206;2023-07-29T12:28:55;27.40;99.90
16995;DHT22;8614;48.522;9.206;2023-07-29T12:31:31;27.30;99.90
16995;DHT22;8614;48.522;9.206;2023-07-29T12:33:58;27.30;99.90
16995;DHT22;8614;48.522;9.206;2023-07-29T12:36:27;27.30;99.90
16995;DHT22;8614;48.522;9.206;2023-07-29T12:39:06;27.40;99.90
16995;DHT22;8614;48.522;9.206;2023-07-29T12:41:43;27.30;99.90
16995;DHT22;8614;48.522;9.206;2023-07-29T12:44:10;27.20;99.90
16995;DHT22;8614;48.522;9.206;2023-07-29T12:46:36;27.20;99.90
16995;DHT22;8614;48.522;9.206;2023-07-29T12:49:03;27.10;99.90
16995;DHT22;8614;48.522;9.206;2023-07-29T12:51:30;27.10;99.90
16995;DHT22;8614;48.522;9.206;2023-07-29T12:53:57;27.00;99.90
16995;DHT22;8614;48.522;9.206;2023-07-29T12:56:23;27.10;99.90
16995;DHT22;8614;48.522;9.206;2023-07-29T12:58:52;27.20;99.90
16995;DHT22;8614;48.522;9.206;2023-07-29T13:01:19;27.30;99.90
16995;DHT22;8614;48.522;9.206;2023-07-29T13:03:45;27.50;99.90
16995;DHT22;8614;48.522;9.206;2023-07-29T13:06:12;27.60;99.90
16995;DHT22;8614;48.522;9.206;2023-07-29T13:08:39;27.60;99.90
16995;DHT22;8614;48.522;9.206;2023-07-29T13:11:06;27.80;99.90
16995;DHT22;8614;48.522;9.206;2023-07-29T13:13:33;27.80;99.90
16995;DHT22;8614;48.522;9.206;2023-07-29T13:16:01;27.80;99.90
16995;DHT22;8614;48.522;9.206;2023-07-29T13:18:28;27.70;99.90
16995;DHT22;8614;48.522;9.206;2023-07-29T13:20:55;27.80;99.90
16995;DHT22;8614;48.522;9.206;2023-07-29T13:23:22;27.80;99.90
16995;DHT22;8614;48.522;9.206;2023-07-29T13:25:49;27.80;99.90
16995;DHT22;8614;48.522;9.206;2023-07-29T13:28:16;27.90;99.90
16995;DHT22;8614;48.522;9.206;2023-07-29T13:30:44;28.00;99.90
16995;DHT22;8614;48.522;9.206;2023-07-29T13:33:12;27.80;99.90
16995;DHT22;8614;48.522;9.206;2023-07-29T13:35:39;27.70;99.90
16995;DHT22;8614;48.522;9.206;2023-07-29T13:38:06;27.70;99.90
16995;DHT22;8614;48.522;9.206;2023-07-29T13:40:32;27.60;99.90
16995;DHT22;8614;48.522;9.206;2023-07-29T13:42:59;27.50;99.90
16995;DHT22;8614;48.522;9.206;2023-07-29T13:45:26;27.60;99.90
16995;DHT22;8614;48.522;9.206;2023-07-29T13:47:53;27.60;99.90
16995;DHT22;8614;48.522;9.206;2023-07-29T13:50:21;27.60;99.90
16995;DHT22;8614;48.522;9.206;2023-07-29T13:52:48;27.60;99.90
16995;DHT22;8614;48.522;9.206;2023-07-29T13:55:15;27.60;99.90
16995;DHT22;8614;48.522;9.206;2023-07-29T13:57:41;27.50;99.90
16995;DHT22;8614;48.522;9.206;2023-07-29T14:00:08;27.40;99.90
16995;DHT22;8614;48.522;9.206;2023-07-29T14:02:38;27.40;99.90
16995;DHT22;8614;48.522;9.206;2023-07-29T14:05:05;27.40;99.90
16995;DHT22;8614;48.522;9.206;2023-07-29T14:07:34;27.30;99.90
16995;DHT22;8614;48.522;9.206;2023-07-29T14:10:00;27.30;99.90
16995;DHT22;8614;48.522;9.206;2023-07-29T14:12:27;27.30;99.90
16995;DHT22;8614;48.522;9.206;2023-07-29T14:14:54;27.20;99.90
16995;DHT22;8614;48.522;9.206;2023-07-29T14:17:21;27.20;99.90
16995;DHT22;8614;48.522;9.206;2023-07-29T14:19:47;27.10;99.90
16995;DHT22;8614;48.522;9.206;2023-07-29T14:22:14;27.00;99.90
16995;DHT22;8614;48.522;9.206;2023-07-29T14:24:42;27.00;99.90
16995;DHT22;8614;48.522;9.206;2023-07-29T14:27:09;27.00;99.90
16995;DHT22;8614;48.522;9.206;2023-07-29T14:29:36;26.90;99.90
16995;DHT22;8614;48.522;9.206;2023-07-29T14:32:03;27.00;99.90
16995;DHT22;8614;48.522;9.206;2023-07-29T14:34:30;27.00;99.90
16995;DHT22;8614;48.522;9.206;2023-07-29T14:36:57;27.20;99.90
16995;DHT22;8614;48.522;9.206;2023-07-29T14:39:24;27.20;99.90
16995;DHT22;8614;48.522;9.206;2023-07-29T14:41:52;27.20;99.90
16995;DHT22;8614;48.522;9.206;2023-07-29T14:44:19;27.10;99.90
16995;DHT22;8614;48.522;9.206;2023-07-29T14:46:46;26.90;99.90
16995;DHT22;8614;48.522;9.206;2023-07-29T14:49:12;26.80;99.90
16995;DHT22;8614;48.522;9.206;2023-07-29T14:51:39;26.80;99.90
16995;DHT22;8614;48.522;9.206;2023-07-29T14:54:06;26.60;99.90
16995;DHT22;8614;48.522;9.206;2023-07-29T14:56:33;26.50;99.90
16995;DHT22;8614;48.522;9.206;2023-07-29T14:59:01;26.50;99.90
16995;DHT22;8614;48.522;9.206;2023-07-29T15:01:28;26.50;99.90
16995;DHT22;8614;48.522;9.206;2023-07-29T15:03:54;26.40;99.90
16995;DHT22;8614;48.522;9.206;2023-07-29T15:06:21;26.40;99.90
16995;DHT22;8614;48.522;9.206;2023-07-29T15:08:48;26.30;99.90
16995;DHT22;8614;48.522;9.206;2023-07-29T15:11:15;26.30;99.90
16995;DHT22;8614;48.522;9.206;2023-07-29T15:13:42;26.30;99.90
16995;DHT22;8614;48.522;9.206;2023-07-29T15:16:10;26.20;99.90
16995;DHT22;8614;48.522;9.206;2023-07-29T15:18:37;26.10;99.90
16995;DHT22;8614;48.522;9.206;2023-07-29T15:21:07;26.00;99.90
16995;DHT22;8614;48.522;9.206;2023-07-29T15:23:35;26.10;99.90
16995;DHT22;8614;48.522;9.206;2023-07-29T15:26:01;26.10;99.90
16995;DHT22;8614;48.522;9.206;2023-07-29T15:28:28;26.20;99.90
16995;DHT22;8614;48.522;9.206;2023-07-29T15:30:55;26.10;99.90
16995;DHT22;8614;48.522;9.206;2023-07-29T15:33:23;26.20;99.90
16995;DHT22;8614;48.522;9.206;2023-07-29T15:35:50;26.20;99.90
16995;DHT22;8614;48.522;9.206;2023-07-29T15:38:17;26.30;99.90
16995;DHT22;8614;48.522;9.206;2023-07-29T15:40:45;26.30;99.90
16995;DHT22;8614;48.522;9.206;2023-07-29T15:43:14;26.30;99.90
16995;DHT22;8614;48.522;9.206;2023-07-29T15:45:41;26.40;99.90
16995;DHT22;8614;48.522;9.206;2023-07-29T15:48:08;26.40;99.90
16995;DHT22;8614;48.522;9.206;2023-07-29T15:50:36;26.30;99.90
16995;DHT22;8614;48.522;9.206;2023-07-29T15:53:03;26.30;99.90